Weather at Campo di Volo "Volo Libero Carnia" [CLOSED]

Public forecast

Using degrees Celsius for public forecast. Weather courtesy of forecast.io.

Closest aviation weather report (METAR) to Campo di Volo "Volo Libero Carnia"

Closest report is Rivolto Air Base, 32.8 nm (60.7 km) S.

2023/09/24 08:55 (retrieved 42 minutes ago)

LIPI 240855Z 13005KT CAVOK 20/11 Q1019

Closest aviation forecast (TAF) to Campo di Volo "Volo Libero Carnia"

Closest forecast is Triesteā€“Friuli Venezia Giulia Airport, 46.1 nm (85.4 km) SSE.

2023/09/24 06:21 (retrieved 3 hours ago)

TAF LIPQ 240500Z 2406/2506 VRB05KT 9999 BKN060 BECMG 2416/2418 04010KT BECMG 2503/2505 VRB05KT